createdAt,value
2022-08-26T00:01:56.194Z,49463.88
2022-08-26T00:04:25.295Z,49475.81
2022-08-26T00:06:53.414Z,49465.84
2022-08-26T00:09:21.080Z,49445.94
2022-08-26T00:11:47.748Z,49467.84
2022-08-26T00:14:15.820Z,49451.91
2022-08-26T00:16:47.577Z,49463.88
2022-08-26T00:19:16.933Z,49479.81
2022-08-26T00:21:43.897Z,49424.00
2022-08-26T00:24:10.728Z,49493.75
2022-08-26T00:26:37.550Z,49433.97
2022-08-26T00:29:04.451Z,49459.88
2022-08-26T00:31:32.610Z,49467.84
2022-08-26T00:33:59.387Z,49449.91
2022-08-26T00:36:29.555Z,49453.91
2022-08-26T00:38:57.105Z,49467.84
2022-08-26T00:41:23.760Z,49459.88
2022-08-26T00:43:51.270Z,49441.94
2022-08-26T00:46:29.166Z,49469.84
2022-08-26T00:49:05.552Z,49445.94
2022-08-26T00:51:50.938Z,49487.78
2022-08-26T00:54:21.085Z,49463.88
2022-08-26T00:57:00.108Z,49495.75
2022-08-26T00:59:32.701Z,49469.84
2022-08-26T01:02:00.633Z,49459.88
2022-08-26T01:04:31.387Z,49467.84
2022-08-26T01:06:58.823Z,49485.78
2022-08-26T01:09:25.783Z,49461.88
2022-08-26T01:11:55.750Z,49495.75
2022-08-26T01:14:24.439Z,49465.84
2022-08-26T01:16:51.251Z,49475.81
2022-08-26T01:19:24.731Z,49445.94
2022-08-26T01:21:59.317Z,49487.78
2022-08-26T01:24:28.316Z,49463.88
2022-08-26T01:27:05.080Z,49487.78
2022-08-26T01:29:34.596Z,49483.81
2022-08-26T01:32:03.327Z,49451.91
2022-08-26T01:34:36.112Z,49463.88
2022-08-26T01:37:07.847Z,49503.72
2022-08-26T01:39:39.102Z,49463.88
2022-08-26T01:42:11.048Z,49469.84
2022-08-26T01:45:10.120Z,49527.66
2022-08-26T01:47:38.545Z,49501.75
2022-08-26T01:50:10.678Z,49457.88
2022-08-26T01:52:41.352Z,49453.91
2022-08-26T01:55:10.171Z,49459.88
2022-08-26T01:57:37.409Z,49439.94
2022-08-26T02:00:07.177Z,49489.78
2022-08-26T02:02:43.678Z,49509.72
2022-08-26T02:05:15.051Z,49451.91
2022-08-26T02:07:43.174Z,49495.75
2022-08-26T02:10:11.047Z,49473.84
2022-08-26T02:12:38.901Z,49487.78
2022-08-26T02:15:07.535Z,49471.84
2022-08-26T02:17:44.644Z,49489.78
2022-08-26T02:20:15.674Z,49457.88
2022-08-26T02:22:45.159Z,49453.91
2022-08-26T02:25:23.045Z,49457.88
2022-08-26T02:27:49.712Z,49471.84
2022-08-26T02:30:26.166Z,49501.75
2022-08-26T02:32:55.646Z,49483.81
2022-08-26T02:35:24.381Z,49493.75
2022-08-26T02:37:52.004Z,49477.81
2022-08-26T02:40:28.312Z,49503.72
2022-08-26T02:42:55.962Z,49467.84
2022-08-26T02:45:25.676Z,49483.81
2022-08-26T02:47:52.555Z,49513.69
2022-08-26T02:50:20.460Z,49489.78
2022-08-26T02:52:48.405Z,49447.91
2022-08-26T02:55:16.006Z,49487.78
2022-08-26T02:57:42.905Z,49447.91
2022-08-26T03:00:13.001Z,49489.78
2022-08-26T03:02:40.179Z,49465.84
2022-08-26T03:05:07.486Z,49487.78
2022-08-26T03:07:34.432Z,49459.88
2022-08-26T03:10:01.155Z,49485.78
2022-08-26T03:12:35.401Z,49505.72
2022-08-26T03:15:02.102Z,49499.75
2022-08-26T03:17:43.626Z,49515.69
2022-08-26T03:20:10.638Z,49509.72
2022-08-26T03:22:40.604Z,49535.63
2022-08-26T03:25:10.183Z,49519.69
2022-08-26T03:27:37.110Z,49487.78
2022-08-26T03:30:23.310Z,49489.78
2022-08-26T03:32:50.146Z,49519.69
2022-08-26T03:35:16.940Z,49487.78
2022-08-26T03:37:43.606Z,49513.69
2022-08-26T03:40:11.575Z,49509.72
2022-08-26T03:42:40.016Z,49487.78
2022-08-26T03:45:10.541Z,49491.78
2022-08-26T03:47:38.217Z,49513.69
2022-08-26T03:50:09.830Z,49507.72
2022-08-26T03:52:39.637Z,49515.69
2022-08-26T03:55:10.578Z,49515.69
2022-08-26T03:57:37.360Z,49455.88
2022-08-26T04:00:06.625Z,49537.63
2022-08-26T04:02:35.577Z,49499.75
2022-08-26T04:05:02.907Z,49523.66
2022-08-26T04:07:30.328Z,49461.88
2022-08-26T04:09:59.106Z,49519.69
2022-08-26T04:12:25.931Z,49519.69
2022-08-26T04:14:53.811Z,49507.72
2022-08-26T04:17:25.092Z,49529.66
2022-08-26T04:19:53.863Z,49479.81
2022-08-26T04:22:24.156Z,49513.69
2022-08-26T04:24:52.471Z,49515.69
2022-08-26T04:27:19.488Z,49503.72
2022-08-26T04:29:46.631Z,49487.78
2022-08-26T04:32:14.630Z,49515.69
2022-08-26T04:34:43.521Z,49481.81
2022-08-26T04:37:11.611Z,49489.78
2022-08-26T04:39:38.228Z,49505.72
2022-08-26T04:42:05.943Z,49519.69
2022-08-26T04:44:35.302Z,49487.78
2022-08-26T04:47:02.001Z,49515.69
2022-08-26T04:49:35.208Z,49539.63
2022-08-26T04:52:03.824Z,49525.66
2022-08-26T04:54:31.464Z,49507.72
2022-08-26T04:56:58.177Z,49493.75
2022-08-26T04:59:25.105Z,49485.78
2022-08-26T05:01:56.386Z,49535.63
2022-08-26T05:04:23.337Z,49503.72
2022-08-26T05:06:51.113Z,49503.72
2022-08-26T05:09:19.212Z,49517.69
2022-08-26T05:11:48.575Z,49507.72
2022-08-26T05:14:19.593Z,49485.78
2022-08-26T05:16:47.771Z,49487.78
2022-08-26T05:19:15.315Z,49499.75
2022-08-26T05:21:47.211Z,49499.75
2022-08-26T05:24:14.323Z,49531.63
2022-08-26T05:26:41.170Z,49527.66
2022-08-26T05:29:08.073Z,49535.63
2022-08-26T05:31:35.660Z,49523.66
2022-08-26T05:34:04.709Z,49531.63
2022-08-26T05:36:33.916Z,49489.78
2022-08-26T05:39:03.104Z,49513.69
2022-08-26T05:41:34.555Z,49509.72
2022-08-26T05:44:06.039Z,49503.72
2022-08-26T05:46:33.954Z,49473.84
2022-08-26T05:49:01.326Z,49511.72
2022-08-26T05:51:30.506Z,49503.72
2022-08-26T05:53:58.663Z,49495.75
2022-08-26T05:56:27.600Z,49495.75
2022-08-26T05:58:56.544Z,49503.72
2022-08-26T06:01:27.832Z,49515.69
2022-08-26T06:03:57.569Z,49515.69
2022-08-26T06:06:30.389Z,49511.72
2022-08-26T06:08:59.510Z,49477.81
2022-08-26T06:11:27.734Z,49519.69
2022-08-26T06:13:59.000Z,49537.63
2022-08-26T06:16:30.148Z,49483.81
2022-08-26T06:18:56.769Z,49529.66
2022-08-26T06:21:39.110Z,49507.72
2022-08-26T06:24:27.522Z,49487.78
2022-08-26T06:26:57.013Z,49499.75
2022-08-26T06:29:26.200Z,49507.72
2022-08-26T06:31:54.020Z,49469.84
2022-08-26T06:34:23.552Z,49499.75
2022-08-26T06:36:58.598Z,49479.81
2022-08-26T06:39:25.588Z,49479.81
2022-08-26T06:41:52.278Z,49473.84
2022-08-26T06:44:19.494Z,49479.81
2022-08-26T06:46:50.504Z,49471.84
2022-08-26T06:49:18.401Z,49503.72
2022-08-26T06:51:54.185Z,49527.66
2022-08-26T06:54:21.306Z,49491.78
2022-08-26T06:56:48.046Z,49491.78
2022-08-26T06:59:15.377Z,49483.81
2022-08-26T07:01:46.959Z,49485.78
2022-08-26T07:04:22.085Z,49459.88
2022-08-26T07:06:53.016Z,49455.88
2022-08-26T07:09:22.407Z,49471.84
2022-08-26T07:11:49.211Z,49457.88
2022-08-26T07:14:16.811Z,49467.84
2022-08-26T07:16:47.423Z,49465.84
2022-08-26T07:19:14.434Z,49495.75
2022-08-26T07:21:44.118Z,49477.81
2022-08-26T07:24:11.541Z,49491.78
2022-08-26T07:26:42.926Z,49477.81
2022-08-26T07:29:12.523Z,49457.88
2022-08-26T07:31:42.216Z,49459.88
2022-08-26T07:34:10.921Z,49487.78
2022-08-26T07:36:37.775Z,49495.75
2022-08-26T07:39:06.061Z,49473.84
2022-08-26T07:41:33.522Z,49487.78
2022-08-26T07:44:00.752Z,49465.84
2022-08-26T07:46:30.246Z,49515.69
2022-08-26T07:48:58.006Z,49497.75
2022-08-26T07:51:26.289Z,49479.81
2022-08-26T07:53:54.301Z,49455.88
2022-08-26T07:56:23.260Z,49471.84
2022-08-26T07:58:53.800Z,49487.78
2022-08-26T08:01:23.798Z,49483.81
2022-08-26T08:03:51.758Z,49491.78
2022-08-26T08:06:19.287Z,49487.78
2022-08-26T08:08:46.337Z,49467.84
2022-08-26T08:11:14.710Z,49437.94
2022-08-26T08:13:41.386Z,49457.88
2022-08-26T08:16:12.444Z,49497.75
2022-08-26T08:18:40.427Z,49503.72
2022-08-26T08:21:23.936Z,49477.81
2022-08-26T08:23:52.909Z,49473.84
2022-08-26T08:26:20.365Z,49453.91
2022-08-26T08:28:47.802Z,49483.81
2022-08-26T08:34:10.921Z,49459.88
2022-08-26T08:36:37.586Z,49473.84
2022-08-26T08:39:05.119Z,49483.81
2022-08-26T08:42:20.646Z,49475.81
2022-08-26T08:44:53.061Z,49485.78
2022-08-26T08:47:42.894Z,49457.88
2022-08-26T08:50:29.881Z,49449.91
2022-08-26T08:53:05.773Z,49467.84
2022-08-26T08:56:04.819Z,49475.81
2022-08-26T08:58:52.874Z,49473.84
2022-08-26T09:01:46.887Z,49449.91
2022-08-26T09:04:19.026Z,49489.78
2022-08-26T09:06:48.626Z,49447.91
2022-08-26T09:09:30.224Z,49467.84
2022-08-26T09:11:58.749Z,49424.00
2022-08-26T09:14:25.583Z,49469.84
2022-08-26T09:16:56.600Z,49455.88
2022-08-26T09:19:33.547Z,49485.78
2022-08-26T09:22:04.661Z,49465.84
2022-08-26T09:24:41.682Z,49475.81
2022-08-26T09:27:11.370Z,49475.81
2022-08-26T09:29:43.382Z,49469.84
2022-08-26T09:32:15.091Z,49471.84
2022-08-26T09:34:56.042Z,49457.88
2022-08-26T09:40:23.827Z,49455.88
2022-08-26T09:43:13.484Z,49459.88
2022-08-26T09:45:44.563Z,49487.78
2022-08-26T09:48:36.419Z,49455.88
2022-08-26T09:51:07.820Z,49443.94
2022-08-26T09:53:49.431Z,49451.91
2022-08-26T09:56:17.449Z,49463.88
2022-08-26T09:58:47.354Z,49499.75
2022-08-26T10:01:23.135Z,49475.81
2022-08-26T10:03:51.462Z,49467.84
2022-08-26T10:06:18.147Z,49461.88
2022-08-26T10:08:52.295Z,49479.81
2022-08-26T10:11:44.880Z,49499.75
2022-08-26T10:14:27.926Z,49475.81
2022-08-26T10:17:11.203Z,49469.84
2022-08-26T10:19:55.640Z,49475.81
2022-08-26T10:22:38.944Z,49491.78
2022-08-26T10:25:11.993Z,49467.84
2022-08-26T10:27:53.693Z,49485.78
2022-08-26T10:30:27.636Z,49495.75
2022-08-26T10:33:06.596Z,49461.88
2022-08-26T10:35:37.716Z,49483.81
2022-08-26T10:38:18.019Z,49427.97
2022-08-26T10:41:02.399Z,49467.84
2022-08-26T10:43:51.541Z,49463.88
2022-08-26T10:46:27.319Z,49445.94
2022-08-26T10:49:08.944Z,49471.84
2022-08-26T10:51:42.689Z,49457.88
2022-08-26T10:54:41.429Z,49449.91
2022-08-26T10:57:26.215Z,49451.91
2022-08-26T11:00:23.400Z,49455.88
2022-08-26T11:03:03.807Z,49431.97
2022-08-26T11:05:30.505Z,49441.94
2022-08-26T11:08:19.341Z,49449.91
2022-08-26T11:10:50.429Z,49414.03
2022-08-26T11:13:17.099Z,49455.88
2022-08-26T11:15:44.143Z,49433.97
2022-08-26T11:18:32.588Z,49455.88
2022-08-26T11:21:00.884Z,49416.03
2022-08-26T11:23:30.422Z,49445.94
2022-08-26T11:25:57.489Z,49414.03
2022-08-26T11:28:48.265Z,49451.91
2022-08-26T11:31:27.115Z,49481.81
2022-08-26T11:33:58.277Z,49475.81
2022-08-26T11:36:47.661Z,49455.88
2022-08-26T11:39:54.063Z,49471.84
2022-08-26T11:42:32.505Z,49483.81
2022-08-26T11:45:01.387Z,49491.78
2022-08-26T11:47:32.003Z,49471.84
2022-08-26T11:50:10.385Z,49459.88
2022-08-26T11:52:37.316Z,49469.84
2022-08-26T11:55:09.207Z,49451.91
2022-08-26T11:57:43.444Z,49467.84
2022-08-26T12:00:22.237Z,49453.91
2022-08-26T12:02:50.555Z,49451.91
2022-08-26T12:05:30.822Z,49453.91
2022-08-26T12:08:04.218Z,49441.94
2022-08-26T12:10:33.745Z,49471.84
2022-08-26T12:13:02.434Z,49451.91
2022-08-26T12:15:31.560Z,49439.94
2022-08-26T12:18:16.962Z,49453.91
2022-08-26T12:20:48.017Z,49483.81
2022-08-26T12:23:36.497Z,49410.03
2022-08-26T12:26:11.924Z,49429.97
2022-08-26T12:28:47.923Z,49443.94
2022-08-26T12:31:24.869Z,49412.03
2022-08-26T12:33:52.549Z,49441.94
2022-08-26T12:36:24.903Z,49463.88
2022-08-26T12:38:53.032Z,49412.03
2022-08-26T12:41:41.555Z,49435.97
2022-08-26T12:44:08.557Z,49429.97
2022-08-26T12:46:35.363Z,49426.00
2022-08-26T12:49:03.018Z,49439.94
2022-08-26T12:51:35.279Z,49427.97
2022-08-26T12:54:06.680Z,49427.97
2022-08-26T12:56:38.964Z,49424.00
2022-08-26T12:59:08.764Z,49398.09
2022-08-26T13:01:43.137Z,49414.03
2022-08-26T13:04:42.512Z,49414.03
2022-08-26T13:07:22.719Z,49414.03
2022-08-26T13:09:51.281Z,49449.91
2022-08-26T13:12:44.383Z,49420.00
2022-08-26T13:15:11.058Z,49435.97
2022-08-26T13:17:39.213Z,49424.00
2022-08-26T13:20:06.315Z,49404.06
2022-08-26T13:22:33.845Z,49400.06
2022-08-26T13:25:00.568Z,49392.09
2022-08-26T13:27:27.446Z,49431.97
2022-08-26T13:29:57.088Z,49447.91
2022-08-26T13:32:27.316Z,49431.97
2022-08-26T13:34:56.407Z,49435.97
2022-08-26T13:37:34.133Z,49426.00
2022-08-26T13:40:04.788Z,49459.88
2022-08-26T13:42:31.470Z,49420.00
2022-08-26T13:44:58.909Z,49398.09
2022-08-26T13:47:26.098Z,49422.00
2022-08-26T13:49:55.215Z,49445.94
2022-08-26T13:52:30.076Z,49412.03
2022-08-26T13:55:00.463Z,49416.03
2022-08-26T13:57:29.950Z,49398.09
2022-08-26T13:59:58.972Z,49441.94
2022-08-26T14:02:27.069Z,49412.03
2022-08-26T14:04:55.211Z,49422.00
2022-08-26T14:07:22.511Z,49471.84
2022-08-26T14:09:49.204Z,49427.97
2022-08-26T14:12:17.081Z,49431.97
2022-08-26T14:14:43.788Z,49424.00
2022-08-26T14:17:12.225Z,49439.94
2022-08-26T14:19:41.857Z,49435.97
2022-08-26T14:22:08.527Z,49424.00
2022-08-26T14:24:35.162Z,49408.06
2022-08-26T14:27:01.873Z,49431.97
2022-08-26T14:29:28.556Z,49420.00
2022-08-26T14:31:57.023Z,49424.00
2022-08-26T14:34:25.069Z,49420.00
2022-08-26T14:36:51.750Z,49469.84
2022-08-26T14:39:18.395Z,49412.03
2022-08-26T14:41:54.610Z,49416.03
2022-08-26T14:44:25.902Z,49406.06
2022-08-26T14:46:54.454Z,49420.00
2022-08-26T14:49:23.011Z,49435.97
2022-08-26T14:51:49.876Z,49416.03
2022-08-26T14:54:17.930Z,49429.97
2022-08-26T14:56:49.305Z,49469.84
2022-08-26T14:59:20.708Z,49427.97
2022-08-26T15:01:48.132Z,49451.91
2022-08-26T15:04:15.474Z,49412.03
2022-08-26T15:06:42.396Z,49445.94
2022-08-26T15:09:10.836Z,49437.94
2022-08-26T15:11:37.956Z,49433.97
2022-08-26T15:14:04.700Z,49441.94
2022-08-26T15:16:31.882Z,49441.94
2022-08-26T15:19:00.354Z,49424.00
2022-08-26T15:21:27.083Z,49404.06
2022-08-26T15:23:53.943Z,49427.97
2022-08-26T15:26:21.947Z,49427.97
2022-08-26T15:28:49.338Z,49479.81
2022-08-26T15:31:16.191Z,49416.03
2022-08-26T15:33:42.883Z,49441.94
2022-08-26T15:36:11.725Z,49439.94
2022-08-26T15:38:41.356Z,49427.97
2022-08-26T15:41:09.340Z,49414.03
2022-08-26T15:43:38.738Z,49431.97
2022-08-26T15:46:11.520Z,49439.94
2022-08-26T15:48:39.402Z,49441.94
2022-08-26T15:51:07.398Z,49467.84
2022-08-26T15:53:34.932Z,49418.00
2022-08-26T15:56:02.206Z,49435.97
2022-08-26T15:58:29.035Z,49449.91
2022-08-26T16:00:56.476Z,49396.09
2022-08-26T16:03:23.690Z,49433.97
2022-08-26T16:05:50.583Z,49459.88
2022-08-26T16:08:17.444Z,49451.91
2022-08-26T16:10:50.421Z,49455.88
2022-08-26T16:13:19.830Z,49420.00
2022-08-26T16:15:48.313Z,49412.03
2022-08-26T16:18:15.758Z,49445.94
2022-08-26T16:20:55.216Z,49451.91
2022-08-26T16:23:38.413Z,49412.03
2022-08-26T16:26:11.285Z,49380.13
2022-08-26T16:28:38.582Z,49427.97
2022-08-26T16:31:07.172Z,49427.97
2022-08-26T16:33:33.988Z,49435.97
2022-08-26T16:36:00.660Z,49455.88
2022-08-26T16:38:27.455Z,49408.06
2022-08-26T16:40:54.104Z,49437.94
2022-08-26T16:43:20.820Z,49424.00
2022-08-26T16:45:47.468Z,49475.81
2022-08-26T16:48:14.099Z,49475.81
2022-08-26T16:50:41.902Z,49467.84
2022-08-26T16:53:15.933Z,49404.06
2022-08-26T16:55:47.083Z,49422.00
2022-08-26T16:58:14.672Z,49437.94
2022-08-26T17:00:41.519Z,49453.91
2022-08-26T17:03:08.244Z,49424.00
2022-08-26T17:05:35.258Z,49426.00
2022-08-26T17:08:02.121Z,49459.88
2022-08-26T17:10:30.061Z,49443.94
2022-08-26T17:12:57.005Z,49439.94
2022-08-26T17:15:23.855Z,49433.97
2022-08-26T17:17:52.590Z,49447.91
2022-08-26T17:20:21.016Z,49439.94
2022-08-26T17:22:50.776Z,49447.91
2022-08-26T17:25:21.965Z,49424.00
2022-08-26T17:27:48.749Z,49384.13
2022-08-26T17:30:16.565Z,49364.19
2022-08-26T17:32:43.844Z,49362.19
2022-08-26T17:35:12.919Z,49376.16
2022-08-26T17:37:40.157Z,49346.25
2022-08-26T17:40:10.063Z,49334.28
2022-08-26T17:42:39.019Z,49372.16
2022-08-26T17:45:06.344Z,49416.03
2022-08-26T17:47:33.982Z,49392.09
2022-08-26T17:50:01.384Z,49426.00
2022-08-26T17:52:28.378Z,49384.13
2022-08-26T17:54:57.870Z,49402.06
2022-08-26T17:57:25.951Z,49412.03
2022-08-26T17:59:53.666Z,49429.97
2022-08-26T18:02:22.259Z,49451.91
2022-08-26T18:04:49.252Z,49424.00
2022-08-26T18:07:17.190Z,49447.91
2022-08-26T18:09:44.250Z,49420.00
2022-08-26T18:12:11.824Z,49461.88
2022-08-26T18:14:38.566Z,49418.00
2022-08-26T18:17:05.258Z,49408.06
2022-08-26T18:19:32.031Z,49435.97
2022-08-26T18:21:58.790Z,49439.94
2022-08-26T18:24:25.596Z,49433.97
2022-08-26T18:26:52.230Z,49447.91
2022-08-26T18:29:19.730Z,49424.00
2022-08-26T18:31:46.593Z,49424.00
2022-08-26T18:34:15.549Z,49435.97
2022-08-26T18:36:43.018Z,49422.00
2022-08-26T18:39:11.016Z,49427.97
2022-08-26T18:41:44.083Z,49483.81
2022-08-26T18:44:13.658Z,49445.94
2022-08-26T18:46:41.164Z,49479.81
2022-08-26T18:49:09.641Z,49459.88
2022-08-26T18:51:37.883Z,49453.91
2022-08-26T18:54:06.410Z,49467.84
2022-08-26T18:56:34.747Z,49451.91
2022-08-26T18:59:01.953Z,49463.88
2022-08-26T19:01:30.297Z,49412.03
2022-08-26T19:03:59.411Z,49455.88
2022-08-26T19:06:28.185Z,49501.75
2022-08-26T19:08:55.601Z,49471.84
2022-08-26T19:11:32.055Z,49459.88
2022-08-26T19:14:08.380Z,49455.88
2022-08-26T19:16:36.662Z,49465.84
2022-08-26T19:19:03.538Z,49451.91
2022-08-26T19:21:33.154Z,49467.84
2022-08-26T19:24:02.348Z,49469.84
2022-08-26T19:26:30.602Z,49473.84
2022-08-26T19:28:57.867Z,49459.88
2022-08-26T19:31:24.834Z,49483.81
2022-08-26T19:33:51.532Z,49467.84
2022-08-26T19:36:23.695Z,49445.94
2022-08-26T19:38:50.901Z,49473.84
2022-08-26T19:41:21.428Z,49471.84
2022-08-26T19:43:48.275Z,49495.75
2022-08-26T19:46:23.063Z,49467.84
2022-08-26T19:48:54.038Z,49471.84
2022-08-26T19:51:28.701Z,49459.88
2022-08-26T19:53:57.265Z,49467.84
2022-08-26T19:56:24.608Z,49459.88
2022-08-26T19:58:51.441Z,49451.91
2022-08-26T20:01:18.972Z,49483.81
2022-08-26T20:03:46.041Z,49461.88
2022-08-26T20:06:14.598Z,49457.88
2022-08-26T20:08:42.624Z,49463.88
2022-08-26T20:11:15.941Z,49479.81
2022-08-26T20:13:44.211Z,49433.97
2022-08-26T20:16:12.039Z,49447.91
2022-08-26T20:18:59.000Z,49461.88
2022-08-26T20:21:26.837Z,49471.84
2022-08-26T20:24:00.987Z,49465.84
2022-08-26T20:26:30.007Z,49487.78
2022-08-26T20:28:57.603Z,49519.69
2022-08-26T20:31:25.392Z,49465.84
2022-08-26T20:33:51.997Z,49463.88
2022-08-26T20:36:21.922Z,49451.91
2022-08-26T20:38:49.358Z,49475.81
2022-08-26T20:41:17.606Z,49467.84
2022-08-26T20:43:46.153Z,49449.91
2022-08-26T20:46:17.240Z,49467.84
2022-08-26T20:48:45.864Z,49445.94
2022-08-26T20:51:12.890Z,49507.72
2022-08-26T20:53:39.742Z,49471.84
2022-08-26T20:56:09.050Z,49491.78
2022-08-26T20:58:36.516Z,49473.84
2022-08-26T21:01:07.505Z,49491.78
2022-08-26T21:03:36.366Z,49455.88
2022-08-26T21:06:03.722Z,49459.88
2022-08-26T21:08:33.084Z,49465.84
2022-08-26T21:11:00.722Z,49451.91
2022-08-26T21:13:35.811Z,49511.72
2022-08-26T21:16:12.211Z,49463.88
2022-08-26T21:18:39.500Z,49499.75
2022-08-26T21:21:08.248Z,49441.94
2022-08-26T21:23:36.140Z,49471.84
2022-08-26T21:26:08.460Z,49479.81
2022-08-26T21:28:36.408Z,49511.72
2022-08-26T21:31:04.340Z,49475.81
2022-08-26T21:33:31.111Z,49477.81
2022-08-26T21:35:57.775Z,49473.84
2022-08-26T21:38:24.499Z,49467.84
2022-08-26T21:40:58.979Z,49467.84
2022-08-26T21:43:34.708Z,49483.81
2022-08-26T21:46:14.632Z,49483.81
2022-08-26T21:48:50.873Z,49487.78
2022-08-26T21:51:20.431Z,49523.66
2022-08-26T21:53:47.572Z,49505.72
2022-08-26T21:56:17.215Z,49475.81
2022-08-26T21:58:44.249Z,49491.78
2022-08-26T22:01:14.127Z,49493.75
2022-08-26T22:03:47.560Z,49495.75
2022-08-26T22:06:20.769Z,49495.75
2022-08-26T22:08:47.606Z,49463.88
2022-08-26T22:11:14.726Z,49495.75
2022-08-26T22:13:42.811Z,49483.81
2022-08-26T22:16:10.551Z,49487.78
2022-08-26T22:18:37.869Z,49469.84
2022-08-26T22:21:10.576Z,49495.75
2022-08-26T22:23:38.764Z,49467.84
2022-08-26T22:26:07.905Z,49483.81
2022-08-26T22:28:35.506Z,49479.81
2022-08-26T22:31:02.581Z,49499.75
2022-08-26T22:33:29.552Z,49481.81
2022-08-26T22:35:56.378Z,49477.81
2022-08-26T22:38:23.965Z,49511.72
2022-08-26T22:40:57.869Z,49491.78
2022-08-26T22:43:25.592Z,49487.78
2022-08-26T22:45:52.970Z,49513.69
2022-08-26T22:48:23.225Z,49495.75
2022-08-26T22:50:51.404Z,49509.72
2022-08-26T22:53:18.727Z,49467.84
2022-08-26T22:55:45.801Z,49461.88
2022-08-26T22:58:14.541Z,49479.81
2022-08-26T23:00:43.015Z,49491.78
2022-08-26T23:03:11.342Z,49491.78
2022-08-26T23:05:39.511Z,49475.81
2022-08-26T23:08:07.078Z,49509.72
2022-08-26T23:10:34.171Z,49511.72
2022-08-26T23:13:01.745Z,49503.72
2022-08-26T23:15:28.450Z,49507.72
2022-08-26T23:17:58.744Z,49483.81
2022-08-26T23:20:27.256Z,49501.75
2022-08-26T23:22:54.956Z,49487.78
2022-08-26T23:25:22.133Z,49499.75
2022-08-26T23:27:51.470Z,49479.81
2022-08-26T23:30:21.135Z,49471.84
2022-08-26T23:32:48.183Z,49487.78
2022-08-26T23:35:15.104Z,49483.81
2022-08-26T23:37:46.090Z,49489.78
2022-08-26T23:40:16.137Z,49483.81
2022-08-26T23:42:42.847Z,49487.78
2022-08-26T23:45:12.648Z,49487.78
2022-08-26T23:47:41.103Z,49493.75
2022-08-26T23:50:09.002Z,49495.75
2022-08-26T23:52:53.947Z,49527.66
2022-08-26T23:55:20.675Z,49471.84
2022-08-26T23:57:47.573Z,49487.78
